sensor_id;sensor_type;location;lat;lon;timestamp;temperature;humidity
44982;DHT22;30716;41.740;-70.400;2023-05-29T00:01:35;23.80;44.80
44982;DHT22;30716;41.740;-70.400;2023-05-29T00:04:02;23.90;44.80
44982;DHT22;30716;41.740;-70.400;2023-05-29T00:06:29;23.90;44.90
44982;DHT22;30716;41.740;-70.400;2023-05-29T00:08:55;23.90;44.70
44982;DHT22;30716;41.740;-70.400;2023-05-29T00:11:21;23.90;45.40
44982;DHT22;30716;41.740;-70.400;2023-05-29T00:13:49;23.90;44.60
44982;DHT22;30716;41.740;-70.400;2023-05-29T00:16:15;23.90;44.70
44982;DHT22;30716;41.740;-70.400;2023-05-29T00:18:43;23.90;44.50
44982;DHT22;30716;41.740;-70.400;2023-05-29T00:21:12;24.00;44.60
44982;DHT22;30716;41.740;-70.400;2023-05-29T00:23:39;24.00;44.60
44982;DHT22;30716;41.740;-70.400;2023-05-29T00:26:06;24.00;44.60
44982;DHT22;30716;41.740;-70.400;2023-05-29T00:28:32;24.00;44.80
44982;DHT22;30716;41.740;-70.400;2023-05-29T00:30:58;24.00;44.60
44982;DHT22;30716;41.740;-70.400;2023-05-29T00:33:25;24.00;44.60
44982;DHT22;30716;41.740;-70.400;2023-05-29T00:35:52;24.00;45.10
44982;DHT22;30716;41.740;-70.400;2023-05-29T00:38:18;23.90;44.20
44982;DHT22;30716;41.740;-70.400;2023-05-29T00:40:44;23.90;44.80
44982;DHT22;30716;41.740;-70.400;2023-05-29T00:43:11;23.90;44.90
44982;DHT22;30716;41.740;-70.400;2023-05-29T00:45:38;23.90;44.70
44982;DHT22;30716;41.740;-70.400;2023-05-29T00:48:05;23.90;44.70
44982;DHT22;30716;41.740;-70.400;2023-05-29T00:50:32;24.00;45.50
44982;DHT22;30716;41.740;-70.400;2023-05-29T00:53:01;24.00;44.60
44982;DHT22;30716;41.740;-70.400;2023-05-29T00:55:29;24.00;44.50
44982;DHT22;30716;41.740;-70.400;2023-05-29T00:57:56;24.10;44.50
44982;DHT22;30716;41.740;-70.400;2023-05-29T01:00:22;24.10;44.50
44982;DHT22;30716;41.740;-70.400;2023-05-29T01:02:49;24.10;44.50
44982;DHT22;30716;41.740;-70.400;2023-05-29T01:05:16;24.10;44.40
44982;DHT22;30716;41.740;-70.400;2023-05-29T01:07:44;24.10;44.40
44982;DHT22;30716;41.740;-70.400;2023-05-29T01:10:11;24.10;44.40
44982;DHT22;30716;41.740;-70.400;2023-05-29T01:12:59;24.20;44.40
44982;DHT22;30716;41.740;-70.400;2023-05-29T01:18:34;24.20;44.50
44982;DHT22;30716;41.740;-70.400;2023-05-29T01:26:54;24.20;44.50
44982;DHT22;30716;41.740;-70.400;2023-05-29T01:29:24;24.20;44.50
44982;DHT22;30716;41.740;-70.400;2023-05-29T01:31:52;24.20;44.60
44982;DHT22;30716;41.740;-70.400;2023-05-29T01:34:19;24.20;44.50
44982;DHT22;30716;41.740;-70.400;2023-05-29T01:36:45;24.20;44.50
44982;DHT22;30716;41.740;-70.400;2023-05-29T01:39:15;24.20;44.60
44982;DHT22;30716;41.740;-70.400;2023-05-29T01:41:45;24.20;44.60
44982;DHT22;30716;41.740;-70.400;2023-05-29T01:44:14;24.20;44.30
44982;DHT22;30716;41.740;-70.400;2023-05-29T01:46:41;24.20;45.00
44982;DHT22;30716;41.740;-70.400;2023-05-29T01:49:09;24.20;44.60
44982;DHT22;30716;41.740;-70.400;2023-05-29T01:51:38;24.20;44.70
44982;DHT22;30716;41.740;-70.400;2023-05-29T01:54:04;24.20;44.60
44982;DHT22;30716;41.740;-70.400;2023-05-29T01:56:31;24.20;44.60
44982;DHT22;30716;41.740;-70.400;2023-05-29T01:58:58;24.20;44.50
44982;DHT22;30716;41.740;-70.400;2023-05-29T02:01:26;24.30;44.70
44982;DHT22;30716;41.740;-70.400;2023-05-29T02:03:52;24.20;44.60
44982;DHT22;30716;41.740;-70.400;2023-05-29T02:06:19;24.20;44.60
44982;DHT22;30716;41.740;-70.400;2023-05-29T02:08:46;24.20;44.70
44982;DHT22;30716;41.740;-70.400;2023-05-29T02:11:12;24.20;44.60
44982;DHT22;30716;41.740;-70.400;2023-05-29T02:13:39;24.20;44.80
44982;DHT22;30716;41.740;-70.400;2023-05-29T02:16:05;24.20;44.60
44982;DHT22;30716;41.740;-70.400;2023-05-29T02:18:32;24.20;45.00
44982;DHT22;30716;41.740;-70.400;2023-05-29T02:21:00;24.20;45.10
44982;DHT22;30716;41.740;-70.400;2023-05-29T02:23:27;24.10;44.70
44982;DHT22;30716;41.740;-70.400;2023-05-29T02:25:53;24.10;45.60
44982;DHT22;30716;41.740;-70.400;2023-05-29T02:28:19;24.10;45.10
44982;DHT22;30716;41.740;-70.400;2023-05-29T02:30:49;24.10;45.00
44982;DHT22;30716;41.740;-70.400;2023-05-29T02:33:15;24.10;45.00
44982;DHT22;30716;41.740;-70.400;2023-05-29T02:35:42;24.10;45.20
44982;DHT22;30716;41.740;-70.400;2023-05-29T02:38:08;24.10;44.90
44982;DHT22;30716;41.740;-70.400;2023-05-29T02:40:34;24.20;45.20
44982;DHT22;30716;41.740;-70.400;2023-05-29T02:43:00;24.10;45.10
44982;DHT22;30716;41.740;-70.400;2023-05-29T02:45:26;24.10;45.10
44982;DHT22;30716;41.740;-70.400;2023-05-29T02:47:53;24.20;45.10
44982;DHT22;30716;41.740;-70.400;2023-05-29T02:50:21;24.20;45.20
44982;DHT22;30716;41.740;-70.400;2023-05-29T02:52:47;24.20;45.00
44982;DHT22;30716;41.740;-70.400;2023-05-29T02:55:13;24.20;44.70
44982;DHT22;30716;41.740;-70.400;2023-05-29T02:57:44;24.20;44.80
44982;DHT22;30716;41.740;-70.400;2023-05-29T03:00:10;24.20;45.60
44982;DHT22;30716;41.740;-70.400;2023-05-29T03:02:37;24.20;44.80
44982;DHT22;30716;41.740;-70.400;2023-05-29T03:05:03;24.20;44.90
44982;DHT22;30716;41.740;-70.400;2023-05-29T03:07:29;24.20;44.90
44982;DHT22;30716;41.740;-70.400;2023-05-29T03:09:56;24.20;44.70
44982;DHT22;30716;41.740;-70.400;2023-05-29T03:12:23;24.20;44.90
44982;DHT22;30716;41.740;-70.400;2023-05-29T03:14:51;24.20;44.80
44982;DHT22;30716;41.740;-70.400;2023-05-29T03:17:17;24.20;45.10
44982;DHT22;30716;41.740;-70.400;2023-05-29T03:19:43;24.20;44.90
44982;DHT22;30716;41.740;-70.400;2023-05-29T03:22:10;24.20;45.10
44982;DHT22;30716;41.740;-70.400;2023-05-29T03:24:36;24.20;45.00
44982;DHT22;30716;41.740;-70.400;2023-05-29T03:27:02;24.20;45.00
44982;DHT22;30716;41.740;-70.400;2023-05-29T03:29:31;24.20;44.90
44982;DHT22;30716;41.740;-70.400;2023-05-29T03:32:00;24.20;44.80
44982;DHT22;30716;41.740;-70.400;2023-05-29T03:34:26;24.30;45.00
44982;DHT22;30716;41.740;-70.400;2023-05-29T03:36:53;24.30;45.00
44982;DHT22;30716;41.740;-70.400;2023-05-29T03:39:19;24.30;45.00
44982;DHT22;30716;41.740;-70.400;2023-05-29T03:41:46;24.30;45.00
44982;DHT22;30716;41.740;-70.400;2023-05-29T03:44:12;24.30;45.10
44982;DHT22;30716;41.740;-70.400;2023-05-29T03:46:38;24.30;45.00
44982;DHT22;30716;41.740;-70.400;2023-05-29T03:49:06;24.30;45.00
44982;DHT22;30716;41.740;-70.400;2023-05-29T03:51:32;24.30;45.20
44982;DHT22;30716;41.740;-70.400;2023-05-29T03:53:59;24.30;45.10
44982;DHT22;30716;41.740;-70.400;2023-05-29T03:56:25;24.30;45.20
44982;DHT22;30716;41.740;-70.400;2023-05-29T03:58:52;24.30;45.10
44982;DHT22;30716;41.740;-70.400;2023-05-29T04:01:18;24.30;45.10
44982;DHT22;30716;41.740;-70.400;2023-05-29T04:03:44;24.30;45.30
44982;DHT22;30716;41.740;-70.400;2023-05-29T04:06:10;24.30;45.10
44982;DHT22;30716;41.740;-70.400;2023-05-29T04:08:37;24.30;45.30
44982;DHT22;30716;41.740;-70.400;2023-05-29T04:11:03;24.30;45.40
44982;DHT22;30716;41.740;-70.400;2023-05-29T04:13:29;24.30;45.30
44982;DHT22;30716;41.740;-70.400;2023-05-29T04:15:56;24.30;45.40
44982;DHT22;30716;41.740;-70.400;2023-05-29T04:18:22;24.30;45.40
44982;DHT22;30716;41.740;-70.400;2023-05-29T04:20:48;24.30;45.40
44982;DHT22;30716;41.740;-70.400;2023-05-29T04:23:14;24.20;45.30
44982;DHT22;30716;41.740;-70.400;2023-05-29T04:25:41;24.30;45.40
44982;DHT22;30716;41.740;-70.400;2023-05-29T04:28:07;24.30;45.50
44982;DHT22;30716;41.740;-70.400;2023-05-29T04:30:36;24.30;45.40
44982;DHT22;30716;41.740;-70.400;2023-05-29T04:33:02;24.30;45.30
44982;DHT22;30716;41.740;-70.400;2023-05-29T04:35:30;24.30;45.50
44982;DHT22;30716;41.740;-70.400;2023-05-29T04:37:56;24.30;45.40
44982;DHT22;30716;41.740;-70.400;2023-05-29T04:40:23;24.20;45.30
44982;DHT22;30716;41.740;-70.400;2023-05-29T04:42:49;24.30;45.50
44982;DHT22;30716;41.740;-70.400;2023-05-29T04:45:18;24.30;45.40
44982;DHT22;30716;41.740;-70.400;2023-05-29T04:47:46;24.30;45.60
44982;DHT22;30716;41.740;-70.400;2023-05-29T04:50:13;24.30;45.40
44982;DHT22;30716;41.740;-70.400;2023-05-29T04:52:39;24.30;45.60
44982;DHT22;30716;41.740;-70.400;2023-05-29T04:55:06;24.30;45.70
44982;DHT22;30716;41.740;-70.400;2023-05-29T04:57:34;24.30;45.80
44982;DHT22;30716;41.740;-70.400;2023-05-29T05:00:03;24.30;45.80
44982;DHT22;30716;41.740;-70.400;2023-05-29T05:02:33;24.30;45.80
44982;DHT22;30716;41.740;-70.400;2023-05-29T05:05:00;24.30;45.80
44982;DHT22;30716;41.740;-70.400;2023-05-29T05:07:26;24.30;45.70
44982;DHT22;30716;41.740;-70.400;2023-05-29T05:09:52;24.30;45.70
44982;DHT22;30716;41.740;-70.400;2023-05-29T05:12:18;24.30;45.60
44982;DHT22;30716;41.740;-70.400;2023-05-29T05:14:44;24.30;45.70
44982;DHT22;30716;41.740;-70.400;2023-05-29T05:17:10;24.30;45.70
44982;DHT22;30716;41.740;-70.400;2023-05-29T05:19:36;24.30;45.60
44982;DHT22;30716;41.740;-70.400;2023-05-29T05:22:03;24.30;45.70
44982;DHT22;30716;41.740;-70.400;2023-05-29T05:24:29;24.30;45.60
44982;DHT22;30716;41.740;-70.400;2023-05-29T05:26:57;24.30;45.60
44982;DHT22;30716;41.740;-70.400;2023-05-29T05:29:23;24.30;45.40
44982;DHT22;30716;41.740;-70.400;2023-05-29T05:31:50;24.30;45.60
44982;DHT22;30716;41.740;-70.400;2023-05-29T05:34:16;24.40;45.50
44982;DHT22;30716;41.740;-70.400;2023-05-29T05:36:42;24.40;45.50
44982;DHT22;30716;41.740;-70.400;2023-05-29T05:39:09;24.40;45.60
44982;DHT22;30716;41.740;-70.400;2023-05-29T05:41:35;24.40;45.50
44982;DHT22;30716;41.740;-70.400;2023-05-29T05:44:01;24.30;45.70
44982;DHT22;30716;41.740;-70.400;2023-05-29T05:46:27;24.30;45.40
44982;DHT22;30716;41.740;-70.400;2023-05-29T05:48:55;24.30;45.50
44982;DHT22;30716;41.740;-70.400;2023-05-29T05:51:23;24.30;45.40
44982;DHT22;30716;41.740;-70.400;2023-05-29T05:53:50;24.30;45.60
44982;DHT22;30716;41.740;-70.400;2023-05-29T05:56:16;24.30;45.50
44982;DHT22;30716;41.740;-70.400;2023-05-29T05:58:42;24.30;45.70
44982;DHT22;30716;41.740;-70.400;2023-05-29T06:01:08;24.30;45.50
44982;DHT22;30716;41.740;-70.400;2023-05-29T06:03:35;24.30;45.60
44982;DHT22;30716;41.740;-70.400;2023-05-29T06:06:03;24.30;45.50
44982;DHT22;30716;41.740;-70.400;2023-05-29T06:08:30;24.30;45.70
44982;DHT22;30716;41.740;-70.400;2023-05-29T06:10:56;24.30;45.60
44982;DHT22;30716;41.740;-70.400;2023-05-29T06:13:22;24.30;45.60
44982;DHT22;30716;41.740;-70.400;2023-05-29T06:15:48;24.30;45.70
44982;DHT22;30716;41.740;-70.400;2023-05-29T06:18:16;24.30;46.00
44982;DHT22;30716;41.740;-70.400;2023-05-29T06:20:42;24.30;45.50
44982;DHT22;30716;41.740;-70.400;2023-05-29T06:23:08;24.30;45.60
44982;DHT22;30716;41.740;-70.400;2023-05-29T06:25:35;24.30;45.50
44982;DHT22;30716;41.740;-70.400;2023-05-29T06:28:01;24.30;45.60
44982;DHT22;30716;41.740;-70.400;2023-05-29T06:30:28;24.30;45.50
44982;DHT22;30716;41.740;-70.400;2023-05-29T06:32:55;24.30;45.70
44982;DHT22;30716;41.740;-70.400;2023-05-29T06:35:21;24.30;45.60
44982;DHT22;30716;41.740;-70.400;2023-05-29T06:37:49;24.30;45.70
44982;DHT22;30716;41.740;-70.400;2023-05-29T06:40:15;24.30;45.50
44982;DHT22;30716;41.740;-70.400;2023-05-29T06:42:42;24.30;45.60
44982;DHT22;30716;41.740;-70.400;2023-05-29T06:45:11;24.30;45.60
44982;DHT22;30716;41.740;-70.400;2023-05-29T06:47:42;24.30;45.50
44982;DHT22;30716;41.740;-70.400;2023-05-29T06:50:08;24.30;45.50
44982;DHT22;30716;41.740;-70.400;2023-05-29T06:52:35;24.30;45.80
44982;DHT22;30716;41.740;-70.400;2023-05-29T06:55:02;24.30;45.60
44982;DHT22;30716;41.740;-70.400;2023-05-29T06:57:28;24.30;45.50
44982;DHT22;30716;41.740;-70.400;2023-05-29T06:59:54;24.30;45.50
44982;DHT22;30716;41.740;-70.400;2023-05-29T07:02:21;24.30;45.70
44982;DHT22;30716;41.740;-70.400;2023-05-29T07:04:47;24.40;45.80
44982;DHT22;30716;41.740;-70.400;2023-05-29T07:07:13;24.30;45.90
44982;DHT22;30716;41.740;-70.400;2023-05-29T07:09:40;24.30;45.70
44982;DHT22;30716;41.740;-70.400;2023-05-29T07:12:06;24.30;45.80
44982;DHT22;30716;41.740;-70.400;2023-05-29T07:14:33;24.30;45.80
44982;DHT22;30716;41.740;-70.400;2023-05-29T07:17:00;24.30;45.90
44982;DHT22;30716;41.740;-70.400;2023-05-29T07:19:26;24.30;45.80
44982;DHT22;30716;41.740;-70.400;2023-05-29T07:21:53;24.30;45.90
44982;DHT22;30716;41.740;-70.400;2023-05-29T07:24:19;24.30;46.00
44982;DHT22;30716;41.740;-70.400;2023-05-29T07:26:45;24.30;45.90
44982;DHT22;30716;41.740;-70.400;2023-05-29T07:29:12;24.30;45.80
44982;DHT22;30716;41.740;-70.400;2023-05-29T07:31:39;24.30;45.90
44982;DHT22;30716;41.740;-70.400;2023-05-29T07:34:06;24.30;45.80
44982;DHT22;30716;41.740;-70.400;2023-05-29T07:36:32;24.30;45.70
44982;DHT22;30716;41.740;-70.400;2023-05-29T07:38:59;24.30;45.80
44982;DHT22;30716;41.740;-70.400;2023-05-29T07:41:26;24.30;46.20
44982;DHT22;30716;41.740;-70.400;2023-05-29T07:43:54;24.30;45.60
44982;DHT22;30716;41.740;-70.400;2023-05-29T07:46:21;24.30;45.60
44982;DHT22;30716;41.740;-70.400;2023-05-29T07:48:47;24.40;45.70
44982;DHT22;30716;41.740;-70.400;2023-05-29T07:51:13;24.40;45.70
44982;DHT22;30716;41.740;-70.400;2023-05-29T07:53:43;24.30;45.50
44982;DHT22;30716;41.740;-70.400;2023-05-29T07:56:11;24.30;45.50
44982;DHT22;30716;41.740;-70.400;2023-05-29T07:58:40;24.40;45.70
44982;DHT22;30716;41.740;-70.400;2023-05-29T08:01:08;24.30;45.70
44982;DHT22;30716;41.740;-70.400;2023-05-29T08:03:34;24.40;45.60
44982;DHT22;30716;41.740;-70.400;2023-05-29T08:06:00;24.40;45.50
44982;DHT22;30716;41.740;-70.400;2023-05-29T08:08:27;24.40;45.70
44982;DHT22;30716;41.740;-70.400;2023-05-29T08:10:54;24.40;45.50
44982;DHT22;30716;41.740;-70.400;2023-05-29T08:13:20;24.40;45.50
44982;DHT22;30716;41.740;-70.400;2023-05-29T08:15:46;24.40;45.50
44982;DHT22;30716;41.740;-70.400;2023-05-29T08:18:13;24.40;45.60
44982;DHT22;30716;41.740;-70.400;2023-05-29T08:20:39;24.40;45.50
44982;DHT22;30716;41.740;-70.400;2023-05-29T08:23:05;24.40;45.60
44982;DHT22;30716;41.740;-70.400;2023-05-29T08:25:31;24.40;45.60
44982;DHT22;30716;41.740;-70.400;2023-05-29T08:27:58;24.40;45.60
44982;DHT22;30716;41.740;-70.400;2023-05-29T08:30:25;24.40;45.60
44982;DHT22;30716;41.740;-70.400;2023-05-29T08:32:52;24.40;45.60
44982;DHT22;30716;41.740;-70.400;2023-05-29T08:35:18;24.40;45.50
44982;DHT22;30716;41.740;-70.400;2023-05-29T08:37:44;24.40;45.50
44982;DHT22;30716;41.740;-70.400;2023-05-29T08:40:11;24.40;45.40
44982;DHT22;30716;41.740;-70.400;2023-05-29T08:43:16;24.40;45.30
44982;DHT22;30716;41.740;-70.400;2023-05-29T08:45:40;24.40;45.30
44982;DHT22;30716;41.740;-70.400;2023-05-29T08:48:10;24.40;45.40
44982;DHT22;30716;41.740;-70.400;2023-05-29T08:50:45;24.40;45.40
44982;DHT22;30716;41.740;-70.400;2023-05-29T08:53:31;24.40;45.40
44982;DHT22;30716;41.740;-70.400;2023-05-29T08:56:00;24.40;45.40
44982;DHT22;30716;41.740;-70.400;2023-05-29T08:58:27;24.40;45.40
44982;DHT22;30716;41.740;-70.400;2023-05-29T09:00:54;24.40;45.40
44982;DHT22;30716;41.740;-70.400;2023-05-29T09:03:21;24.40;45.50
44982;DHT22;30716;41.740;-70.400;2023-05-29T09:05:48;24.40;45.40
44982;DHT22;30716;41.740;-70.400;2023-05-29T09:08:15;24.40;45.50
44982;DHT22;30716;41.740;-70.400;2023-05-29T09:10:42;24.40;45.40
44982;DHT22;30716;41.740;-70.400;2023-05-29T09:13:09;24.40;45.30
44982;DHT22;30716;41.740;-70.400;2023-05-29T09:15:37;24.40;45.40
44982;DHT22;30716;41.740;-70.400;2023-05-29T09:18:09;24.40;45.30
44982;DHT22;30716;41.740;-70.400;2023-05-29T09:20:35;24.40;45.40
44982;DHT22;30716;41.740;-70.400;2023-05-29T09:23:04;24.40;45.40
44982;DHT22;30716;41.740;-70.400;2023-05-29T09:25:34;24.40;45.00
44982;DHT22;30716;41.740;-70.400;2023-05-29T09:28:03;24.40;45.50
44982;DHT22;30716;41.740;-70.400;2023-05-29T09:30:39;24.40;45.50
44982;DHT22;30716;41.740;-70.400;2023-05-29T09:33:13;24.40;45.60
44982;DHT22;30716;41.740;-70.400;2023-05-29T09:35:46;24.40;45.60
44982;DHT22;30716;41.740;-70.400;2023-05-29T09:38:19;24.40;45.60
44982;DHT22;30716;41.740;-70.400;2023-05-29T09:40:46;24.30;45.60
44982;DHT22;30716;41.740;-70.400;2023-05-29T09:43:14;24.30;45.60
44982;DHT22;30716;41.740;-70.400;2023-05-29T09:45:44;24.30;45.80
44982;DHT22;30716;41.740;-70.400;2023-05-29T09:50:41;24.30;45.80
44982;DHT22;30716;41.740;-70.400;2023-05-29T09:53:21;24.30;45.90
44982;DHT22;30716;41.740;-70.400;2023-05-29T09:55:50;24.30;45.90
44982;DHT22;30716;41.740;-70.400;2023-05-29T09:58:21;24.30;45.80
44982;DHT22;30716;41.740;-70.400;2023-05-29T10:00:48;24.30;45.70
44982;DHT22;30716;41.740;-70.400;2023-05-29T10:03:16;24.30;45.70
44982;DHT22;30716;41.740;-70.400;2023-05-29T10:05:47;24.30;45.60
44982;DHT22;30716;41.740;-70.400;2023-05-29T10:08:17;24.30;45.40
44982;DHT22;30716;41.740;-70.400;2023-05-29T10:10:46;24.30;45.50
44982;DHT22;30716;41.740;-70.400;2023-05-29T10:13:14;24.20;45.50
44982;DHT22;30716;41.740;-70.400;2023-05-29T10:15:44;24.20;45.70
44982;DHT22;30716;41.740;-70.400;2023-05-29T10:18:25;24.20;45.70
44982;DHT22;30716;41.740;-70.400;2023-05-29T10:20:53;24.20;45.80
44982;DHT22;30716;41.740;-70.400;2023-05-29T10:23:25;24.20;45.80
44982;DHT22;30716;41.740;-70.400;2023-05-29T10:25:53;24.20;45.90
44982;DHT22;30716;41.740;-70.400;2023-05-29T10:28:23;24.20;45.80
44982;DHT22;30716;41.740;-70.400;2023-05-29T10:31:09;24.20;45.80
44982;DHT22;30716;41.740;-70.400;2023-05-29T10:36:20;24.20;45.70
44982;DHT22;30716;41.740;-70.400;2023-05-29T10:38:50;24.20;45.70
44982;DHT22;30716;41.740;-70.400;2023-05-29T10:43:59;24.20;45.60
44982;DHT22;30716;41.740;-70.400;2023-05-29T10:49:22;24.20;45.70
44982;DHT22;30716;41.740;-70.400;2023-05-29T10:51:49;24.20;45.60
44982;DHT22;30716;41.740;-70.400;2023-05-29T10:54:15;24.20;45.50
44982;DHT22;30716;41.740;-70.400;2023-05-29T10:56:51;24.20;45.40
44982;DHT22;30716;41.740;-70.400;2023-05-29T10:59:18;24.10;45.10
44982;DHT22;30716;41.740;-70.400;2023-05-29T11:01:44;24.10;45.40
44982;DHT22;30716;41.740;-70.400;2023-05-29T11:06:46;24.10;46.50
44982;DHT22;30716;41.740;-70.400;2023-05-29T11:12:25;24.00;46.40
44982;DHT22;30716;41.740;-70.400;2023-05-29T11:15:11;24.00;46.40
44982;DHT22;30716;41.740;-70.400;2023-05-29T11:20:36;23.90;46.40
44982;DHT22;30716;41.740;-70.400;2023-05-29T11:23:05;23.90;46.40
44982;DHT22;30716;41.740;-70.400;2023-05-29T11:25:38;23.90;46.00
44982;DHT22;30716;41.740;-70.400;2023-05-29T11:28:05;23.90;45.50
44982;DHT22;30716;41.740;-70.400;2023-05-29T11:30:48;23.90;46.30
44982;DHT22;30716;41.740;-70.400;2023-05-29T11:33:28;23.90;46.30
44982;DHT22;30716;41.740;-70.400;2023-05-29T11:35:57;23.90;46.40
44982;DHT22;30716;41.740;-70.400;2023-05-29T11:38:30;23.90;46.30
44982;DHT22;30716;41.740;-70.400;2023-05-29T11:40:57;23.90;46.30
44982;DHT22;30716;41.740;-70.400;2023-05-29T11:43:26;23.90;46.30
44982;DHT22;30716;41.740;-70.400;2023-05-29T11:45:53;23.90;46.30
44982;DHT22;30716;41.740;-70.400;2023-05-29T11:48:20;23.90;46.30
44982;DHT22;30716;41.740;-70.400;2023-05-29T11:50:49;24.00;46.40
44982;DHT22;30716;41.740;-70.400;2023-05-29T11:53:15;24.00;46.40
44982;DHT22;30716;41.740;-70.400;2023-05-29T11:55:42;24.00;46.30
44982;DHT22;30716;41.740;-70.400;2023-05-29T11:58:09;24.00;46.40
44982;DHT22;30716;41.740;-70.400;2023-05-29T12:00:38;24.00;46.50
44982;DHT22;30716;41.740;-70.400;2023-05-29T12:03:07;24.10;46.40
44982;DHT22;30716;41.740;-70.400;2023-05-29T12:05:48;24.10;46.50
44982;DHT22;30716;41.740;-70.400;2023-05-29T12:08:16;24.10;46.50
44982;DHT22;30716;41.740;-70.400;2023-05-29T12:10:49;24.10;46.20
44982;DHT22;30716;41.740;-70.400;2023-05-29T12:13:15;24.10;46.50
44982;DHT22;30716;41.740;-70.400;2023-05-29T12:15:45;24.10;45.80
44982;DHT22;30716;41.740;-70.400;2023-05-29T12:18:13;24.00;46.30
44982;DHT22;30716;41.740;-70.400;2023-05-29T12:20:40;24.00;46.40
44982;DHT22;30716;41.740;-70.400;2023-05-29T12:23:07;24.00;46.00
44982;DHT22;30716;41.740;-70.400;2023-05-29T12:25:34;24.00;46.50
44982;DHT22;30716;41.740;-70.400;2023-05-29T12:28:04;23.90;46.30
44982;DHT22;30716;41.740;-70.400;2023-05-29T12:30:31;23.90;46.00
44982;DHT22;30716;41.740;-70.400;2023-05-29T12:32:57;23.90;46.20
44982;DHT22;30716;41.740;-70.400;2023-05-29T12:35:27;23.80;46.00
44982;DHT22;30716;41.740;-70.400;2023-05-29T12:40:30;23.80;46.20
44982;DHT22;30716;41.740;-70.400;2023-05-29T12:42:59;23.80;45.60
44982;DHT22;30716;41.740;-70.400;2023-05-29T12:45:31;23.80;45.70
44982;DHT22;30716;41.740;-70.400;2023-05-29T12:48:00;23.80;46.20
44982;DHT22;30716;41.740;-70.400;2023-05-29T12:53:05;23.80;46.20
44982;DHT22;30716;41.740;-70.400;2023-05-29T12:55:40;23.80;46.20
44982;DHT22;30716;41.740;-70.400;2023-05-29T12:58:10;23.80;46.20
44982;DHT22;30716;41.740;-70.400;2023-05-29T13:00:38;23.90;46.30
44982;DHT22;30716;41.740;-70.400;2023-05-29T13:03:05;23.90;46.30
44982;DHT22;30716;41.740;-70.400;2023-05-29T13:05:34;23.80;46.20
44982;DHT22;30716;41.740;-70.400;2023-05-29T13:08:01;23.80;46.30
44982;DHT22;30716;41.740;-70.400;2023-05-29T13:10:28;23.80;46.20
44982;DHT22;30716;41.740;-70.400;2023-05-29T13:12:55;23.80;46.30
44982;DHT22;30716;41.740;-70.400;2023-05-29T13:15:24;23.80;46.20
44982;DHT22;30716;41.740;-70.400;2023-05-29T13:17:52;23.70;46.10
44982;DHT22;30716;41.740;-70.400;2023-05-29T13:20:19;23.70;46.10
44982;DHT22;30716;41.740;-70.400;2023-05-29T13:22:47;23.70;46.10
44982;DHT22;30716;41.740;-70.400;2023-05-29T13:25:15;23.70;46.10
44982;DHT22;30716;41.740;-70.400;2023-05-29T13:27:46;23.70;46.20
44982;DHT22;30716;41.740;-70.400;2023-05-29T13:30:14;23.80;46.20
44982;DHT22;30716;41.740;-70.400;2023-05-29T13:32:41;23.80;46.20
44982;DHT22;30716;41.740;-70.400;2023-05-29T13:35:11;23.80;46.20
44982;DHT22;30716;41.740;-70.400;2023-05-29T13:37:37;23.90;46.30
44982;DHT22;30716;41.740;-70.400;2023-05-29T13:40:05;23.90;46.30
44982;DHT22;30716;41.740;-70.400;2023-05-29T13:42:33;23.90;46.30
44982;DHT22;30716;41.740;-70.400;2023-05-29T13:45:00;23.90;46.30
44982;DHT22;30716;41.740;-70.400;2023-05-29T13:47:26;23.90;46.40
44982;DHT22;30716;41.740;-70.400;2023-05-29T13:49:54;23.90;46.40
44982;DHT22;30716;41.740;-70.400;2023-05-29T13:52:20;23.90;46.30
44982;DHT22;30716;41.740;-70.400;2023-05-29T13:54:46;23.80;46.30
44982;DHT22;30716;41.740;-70.400;2023-05-29T13:57:13;23.80;46.20
44982;DHT22;30716;41.740;-70.400;2023-05-29T13:59:39;23.80;46.20
44982;DHT22;30716;41.740;-70.400;2023-05-29T14:02:06;23.70;46.10
44982;DHT22;30716;41.740;-70.400;2023-05-29T14:04:34;23.70;46.10
44982;DHT22;30716;41.740;-70.400;2023-05-29T14:07:02;23.80;46.20
44982;DHT22;30716;41.740;-70.400;2023-05-29T14:09:28;23.80;46.20
44982;DHT22;30716;41.740;-70.400;2023-05-29T14:11:55;23.80;46.20
44982;DHT22;30716;41.740;-70.400;2023-05-29T14:14:22;23.80;46.20
44982;DHT22;30716;41.740;-70.400;2023-05-29T14:16:49;23.80;46.20
44982;DHT22;30716;41.740;-70.400;2023-05-29T14:19:18;23.80;46.20
44982;DHT22;30716;41.740;-70.400;2023-05-29T14:21:44;23.90;46.30
44982;DHT22;30716;41.740;-70.400;2023-05-29T14:24:11;23.90;46.30
44982;DHT22;30716;41.740;-70.400;2023-05-29T14:26:38;23.90;46.40
44982;DHT22;30716;41.740;-70.400;2023-05-29T14:29:05;23.90;46.30
44982;DHT22;30716;41.740;-70.400;2023-05-29T14:31:31;23.90;46.30
44982;DHT22;30716;41.740;-70.400;2023-05-29T14:33:58;23.90;46.40
44982;DHT22;30716;41.740;-70.400;2023-05-29T14:36:24;23.80;46.30
44982;DHT22;30716;41.740;-70.400;2023-05-29T14:38:51;23.70;46.10
44982;DHT22;30716;41.740;-70.400;2023-05-29T14:41:17;23.70;46.10
44982;DHT22;30716;41.740;-70.400;2023-05-29T14:43:43;23.70;46.10
44982;DHT22;30716;41.740;-70.400;2023-05-29T14:46:10;23.70;46.10
44982;DHT22;30716;41.740;-70.400;2023-05-29T14:48:37;23.80;46.20
44982;DHT22;30716;41.740;-70.400;2023-05-29T14:51:03;23.80;46.20
44982;DHT22;30716;41.740;-70.400;2023-05-29T14:53:30;23.80;46.20
44982;DHT22;30716;41.740;-70.400;2023-05-29T14:55:57;23.80;46.20
44982;DHT22;30716;41.740;-70.400;2023-05-29T14:58:23;23.80;46.20
44982;DHT22;30716;41.740;-70.400;2023-05-29T15:00:50;23.90;46.30
44982;DHT22;30716;41.740;-70.400;2023-05-29T15:03:16;23.90;46.40
44982;DHT22;30716;41.740;-70.400;2023-05-29T15:05:42;23.90;46.30
44982;DHT22;30716;41.740;-70.400;2023-05-29T15:08:08;23.90;46.30
44982;DHT22;30716;41.740;-70.400;2023-05-29T15:10:36;23.90;46.30
44982;DHT22;30716;41.740;-70.400;2023-05-29T15:13:02;23.90;46.30
44982;DHT22;30716;41.740;-70.400;2023-05-29T15:15:30;24.00;46.50
44982;DHT22;30716;41.740;-70.400;2023-05-29T15:17:56;23.90;46.30
44982;DHT22;30716;41.740;-70.400;2023-05-29T15:20:26;23.80;46.20
44982;DHT22;30716;41.740;-70.400;2023-05-29T15:22:53;23.80;46.20
44982;DHT22;30716;41.740;-70.400;2023-05-29T15:25:20;23.80;46.20
44982;DHT22;30716;41.740;-70.400;2023-05-29T15:27:47;23.80;46.30
44982;DHT22;30716;41.740;-70.400;2023-05-29T15:30:15;23.80;46.20
44982;DHT22;30716;41.740;-70.400;2023-05-29T15:32:43;23.80;46.20
44982;DHT22;30716;41.740;-70.400;2023-05-29T15:35:10;23.80;46.30
44982;DHT22;30716;41.740;-70.400;2023-05-29T15:37:38;23.80;46.20
44982;DHT22;30716;41.740;-70.400;2023-05-29T15:40:05;23.80;46.20